Stillwell, Ohio
Current Conditions -  °F | °C
As of 10:56 PM on Saturday 24 Jan 2015 (Local Time) from K4I3 Reporting Station
Overcast Overcast  
Wind Chill: 26°   Ceiling: 4000
Heat Index: 32°   Visibility: 7mi
Dew Point: 30°   Wind: 7mph
Humidity: 93%   Direction: 240°WSW
Pressure: 29.72"   Gusts: NA
Location:  40.4765°N, 82.0295°W
Report Text: K4I3 250356Z AUTO 24006KT 7SM OVC040 00/M01 A2972 RMK AO2
Loading
Personal Weather Stations






























Interactive Weather Map New forecast layout! Learn more

10-Day Weather Forecast

Advertisements
Track Severe Weather on mobile